Time;durP1;ratioP1;P1;durP2;ratioP2;P2;SDS_P1;SDS_P2;PMS_P1;PMS_P2;Temp;Humidity;BMP_temperature;BMP_pressure;BME280_temperature;BME280_humidity;BME280_pressure;Samples;Min_cycle;Max_cycle;Signal;HPM_P1;HPM_P2
2021/08/29 00:01:37;;;;;;;23.53;17.33;;;12.70;99.90;;;;;;4441189;32;20377;-82
2021/08/29 00:04:04;;;;;;;26.30;17.60;;;12.70;99.90;;;;;;4442927;32;20207;-81
2021/08/29 00:06:31;;;;;;;23.90;17.63;;;12.70;99.90;;;;;;4441410;32;20161;-81
2021/08/29 00:08:58;;;;;;;27.53;17.73;;;12.60;99.90;;;;;;4441175;32;20229;-82
2021/08/29 00:11:24;;;;;;;26.10;18.33;;;12.60;99.90;;;;;;4442149;32;20194;-81
2021/08/29 00:13:51;;;;;;;27.63;18.27;;;12.50;99.90;;;;;;4441955;32;20419;-81
2021/08/29 00:16:18;;;;;;;25.27;17.97;;;12.50;99.90;;;;;;4442551;32;20139;-82
2021/08/29 00:18:45;;;;;;;24.33;18.27;;;12.50;99.90;;;;;;4441213;32;20200;-81
2021/08/29 00:21:12;;;;;;;22.10;16.83;;;12.50;99.90;;;;;;4442707;32;20360;-81
2021/08/29 00:23:38;;;;;;;24.87;17.63;;;12.50;99.90;;;;;;4442865;32;20330;-82
2021/08/29 00:26:05;;;;;;;27.47;18.47;;;12.50;99.90;;;;;;4440738;32;20464;-82
2021/08/29 00:28:32;;;;;;;26.13;18.30;;;12.50;99.90;;;;;;4442655;32;20188;-81
2021/08/29 00:30:59;;;;;;;24.20;18.63;;;12.50;99.90;;;;;;4440910;32;20131;-81
2021/08/29 00:33:26;;;;;;;25.97;18.40;;;12.50;99.90;;;;;;4440443;32;20219;-81
2021/08/29 00:35:52;;;;;;;24.37;18.03;;;12.60;99.90;;;;;;4440784;32;20171;-82
2021/08/29 00:38:19;;;;;;;25.47;17.93;;;12.50;99.90;;;;;;4441011;32;20150;-81
2021/08/29 00:40:47;;;;;;;24.93;17.80;;;12.50;99.90;;;;;;4442008;32;20162;-81
2021/08/29 00:43:14;;;;;;;27.47;18.17;;;12.50;99.90;;;;;;4441118;32;20414;-81
2021/08/29 00:45:42;;;;;;;26.10;18.00;;;12.50;99.90;;;;;;4439549;32;20191;-81
2021/08/29 00:48:10;;;;;;;24.30;18.57;;;12.50;99.90;;;;;;4441348;32;20139;-81
2021/08/29 00:50:43;;;;;;;23.67;18.33;;;12.50;99.90;;;;;;4440929;32;20143;-82
2021/08/29 00:53:14;;;;;;;22.80;17.17;;;12.50;99.90;;;;;;4439959;32;20195;-82
2021/08/29 00:55:41;;;;;;;24.77;17.67;;;12.50;99.90;;;;;;4440794;32;20449;-81
2021/08/29 00:58:08;;;;;;;24.13;18.17;;;12.50;99.90;;;;;;4440329;32;20184;-81
2021/08/29 01:00:39;;;;;;;22.93;17.00;;;12.60;99.90;;;;;;4440131;32;20179;-81
2021/08/29 01:03:14;;;;;;;24.07;17.03;;;12.50;99.90;;;;;;4439463;32;20161;-81
2021/08/29 01:05:58;;;;;;;26.43;17.37;;;12.50;99.90;;;;;;4441962;32;20214;-81
2021/08/29 01:08:31;;;;;;;21.87;16.20;;;12.50;99.90;;;;;;4439951;32;20146;-81
2021/08/29 01:11:01;;;;;;;23.83;16.80;;;12.50;99.90;;;;;;4440681;32;20375;-81
2021/08/29 01:13:32;;;;;;;20.70;16.00;;;12.50;99.90;;;;;;4441163;32;20210;-81
2021/08/29 01:16:06;;;;;;;24.13;16.93;;;12.50;99.90;;;;;;4439181;32;20181;-81
2021/08/29 01:18:39;;;;;;;22.13;16.20;;;12.50;99.90;;;;;;4440323;32;20456;-80
2021/08/29 01:21:34;;;;;;;22.17;16.37;;;12.50;99.90;;;;;;4441633;32;20162;-81
2021/08/29 01:24:05;;;;;;;21.30;16.13;;;12.50;99.90;;;;;;4439420;32;20497;-82
2021/08/29 01:27:06;;;;;;;21.33;16.10;;;12.50;99.90;;;;;;4439553;32;20217;-81
2021/08/29 01:29:34;;;;;;;23.73;15.37;;;12.50;99.90;;;;;;4441204;32;20130;-81
2021/08/29 01:32:04;;;;;;;23.13;15.13;;;12.50;99.90;;;;;;4440719;32;20131;-82
2021/08/29 01:34:32;;;;;;;21.13;15.80;;;12.50;99.90;;;;;;4439761;32;20457;-83
2021/08/29 01:37:01;;;;;;;19.60;14.80;;;12.50;99.90;;;;;;4441568;32;20176;-82
2021/08/29 01:39:30;;;;;;;18.87;14.80;;;12.50;99.90;;;;;;4439586;32;20188;-82
2021/08/29 01:41:58;;;;;;;19.43;14.10;;;12.50;99.90;;;;;;4439685;32;20131;-82
2021/08/29 01:44:25;;;;;;;22.97;15.10;;;12.50;99.90;;;;;;4439746;32;20153;-81
2021/08/29 01:46:52;;;;;;;21.10;13.70;;;12.50;99.90;;;;;;4441347;32;20131;-81
2021/08/29 01:49:19;;;;;;;19.60;14.33;;;12.50;99.90;;;;;;4441381;32;20126;-82
2021/08/29 01:51:46;;;;;;;17.80;13.93;;;12.50;99.90;;;;;;4439855;32;20162;-81
2021/08/29 01:54:13;;;;;;;19.17;14.03;;;12.50;99.90;;;;;;4441523;32;20162;-81
2021/08/29 01:57:01;;;;;;;20.00;13.63;;;12.50;99.90;;;;;;4440919;32;20176;-82
2021/08/29 01:59:28;;;;;;;19.10;13.83;;;12.50;99.90;;;;;;4440088;32;20222;-83
2021/08/29 02:01:56;;;;;;;19.50;14.10;;;12.50;99.90;;;;;;4439460;32;20143;-83
2021/08/29 02:04:25;;;;;;;17.30;13.33;;;12.50;99.90;;;;;;4439890;32;20418;-83
2021/08/29 02:07:36;;;;;;;18.90;13.50;;;12.50;99.90;;;;;;4440941;32;20240;-83
2021/08/29 02:10:09;;;;;;;16.20;12.47;;;12.50;99.90;;;;;;4439734;32;20165;-83
2021/08/29 02:12:51;;;;;;;17.30;12.67;;;12.50;99.90;;;;;;4440527;32;20305;-82
2021/08/29 02:15:24;;;;;;;18.93;13.47;;;12.50;99.90;;;;;;4439984;32;20443;-82
2021/08/29 02:17:52;;;;;;;18.17;12.53;;;12.50;99.90;;;;;;4440145;32;20441;-83
2021/08/29 02:20:23;;;;;;;18.77;13.17;;;12.50;99.90;;;;;;4438270;32;20170;-82
2021/08/29 02:22:52;;;;;;;16.67;12.87;;;12.50;99.90;;;;;;4439347;32;20150;-82
2021/08/29 02:25:19;;;;;;;18.33;13.13;;;12.50;99.90;;;;;;4439375;32;20127;-82
2021/08/29 02:27:46;;;;;;;17.50;12.70;;;12.50;99.90;;;;;;4440669;32;20476;-82
2021/08/29 02:30:13;;;;;;;17.33;12.77;;;12.40;99.90;;;;;;4440020;32;20184;-82
2021/08/29 02:32:42;;;;;;;17.93;13.03;;;12.50;99.90;;;;;;4440494;32;20130;-82
2021/08/29 02:35:10;;;;;;;17.27;12.57;;;12.40;99.90;;;;;;4438991;32;20530;-83
2021/08/29 02:37:38;;;;;;;19.80;12.80;;;12.40;99.90;;;;;;4440142;32;20172;-83
2021/08/29 02:40:08;;;;;;;17.67;12.30;;;12.40;99.90;;;;;;4441071;32;20162;-84
2021/08/29 02:42:34;;;;;;;16.17;11.87;;;12.40;99.90;;;;;;4440331;32;20224;-82
2021/08/29 02:45:05;;;;;;;17.27;12.00;;;12.40;99.90;;;;;;4440501;32;20135;-82
2021/08/29 02:47:33;;;;;;;17.03;12.27;;;12.40;99.90;;;;;;4439291;32;20131;-82
2021/08/29 02:50:00;;;;;;;15.57;11.67;;;12.30;99.90;;;;;;4441070;32;20179;-81
2021/08/29 02:52:28;;;;;;;18.53;12.53;;;12.30;99.90;;;;;;4440906;32;20119;-82
2021/08/29 02:54:57;;;;;;;19.20;13.03;;;12.30;99.90;;;;;;4439152;32;20193;-82
2021/08/29 02:57:31;;;;;;;16.93;12.17;;;12.20;99.90;;;;;;4439704;32;20145;-82
2021/08/29 02:59:58;;;;;;;15.93;12.33;;;12.10;99.90;;;;;;4439417;32;20134;-82
2021/08/29 03:02:25;;;;;;;16.43;12.77;;;12.10;99.90;;;;;;4440706;32;20127;-82
2021/08/29 03:04:52;;;;;;;18.07;12.60;;;12.10;99.90;;;;;;4437976;32;20420;-82
2021/08/29 03:07:19;;;;;;;17.47;12.50;;;12.00;99.90;;;;;;4440286;32;20457;-81
2021/08/29 03:09:46;;;;;;;17.63;12.43;;;12.00;99.90;;;;;;4441268;32;20324;-81
2021/08/29 03:12:13;;;;;;;15.83;12.33;;;11.90;99.90;;;;;;4441020;32;20131;-82
2021/08/29 03:14:40;;;;;;;16.17;12.00;;;11.90;99.90;;;;;;4441805;32;20166;-82
2021/08/29 03:17:08;;;;;;;17.63;12.60;;;11.80;99.90;;;;;;4443278;32;20119;-82
2021/08/29 03:19:35;;;;;;;17.03;12.93;;;11.80;99.90;;;;;;4442354;32;20122;-82
2021/08/29 03:22:04;;;;;;;17.40;13.07;;;11.80;99.90;;;;;;4442871;32;20247;-82
2021/08/29 03:24:31;;;;;;;18.23;12.73;;;11.70;99.90;;;;;;4443607;32;20176;-82
2021/08/29 03:26:58;;;;;;;17.13;13.20;;;11.60;99.90;;;;;;4442628;32;20139;-82
2021/08/29 03:29:24;;;;;;;19.10;13.00;;;11.60;99.90;;;;;;4442780;32;20122;-81
2021/08/29 03:31:51;;;;;;;17.40;13.07;;;11.60;99.90;;;;;;4442088;32;20131;-82
2021/08/29 03:34:19;;;;;;;17.93;13.60;;;11.50;99.90;;;;;;4441676;32;20157;-81
2021/08/29 03:36:46;;;;;;;20.13;13.27;;;11.50;99.90;;;;;;4443514;32;20372;-81
2021/08/29 03:39:14;;;;;;;19.00;13.50;;;11.40;99.90;;;;;;4442739;32;20170;-80
2021/08/29 03:41:43;;;;;;;17.33;13.33;;;11.40;99.90;;;;;;4441960;32;20127;-80
2021/08/29 03:44:12;;;;;;;19.73;13.63;;;11.40;99.90;;;;;;4442884;32;20200;-81
2021/08/29 03:46:40;;;;;;;17.53;13.83;;;11.40;99.90;;;;;;4440654;32;20131;-80
2021/08/29 03:49:07;;;;;;;17.60;13.47;;;11.40;99.90;;;;;;4440349;32;20254;-80
2021/08/29 03:51:37;;;;;;;19.50;13.70;;;11.40;99.90;;;;;;4441643;32;20131;-81
2021/08/29 03:54:05;;;;;;;18.10;13.53;;;11.40;99.90;;;;;;4441884;32;20128;-81
2021/08/29 03:56:32;;;;;;;16.83;13.40;;;11.30;99.90;;;;;;4442707;32;20127;-81
2021/08/29 03:58:59;;;;;;;17.80;13.80;;;11.30;99.90;;;;;;4441373;32;20238;-81
2021/08/29 04:01:26;;;;;;;18.10;12.97;;;11.30;99.90;;;;;;4441091;32;20491;-81
2021/08/29 04:03:54;;;;;;;18.90;14.07;;;11.30;99.90;;;;;;4442907;32;20149;-80
2021/08/29 04:06:22;;;;;;;19.77;14.00;;;11.30;99.90;;;;;;4441329;32;20127;-80
2021/08/29 04:08:53;;;;;;;19.90;14.07;;;11.30;99.90;;;;;;4441248;32;20166;-81
2021/08/29 04:11:28;;;;;;;18.63;13.80;;;11.30;99.90;;;;;;4441908;32;20135;-80
2021/08/29 04:13:55;;;;;;;18.47;13.87;;;11.40;99.90;;;;;;4441659;32;20179;-80
2021/08/29 04:16:23;;;;;;;18.80;13.90;;;11.40;99.90;;;;;;4442527;32;20131;-81
2021/08/29 04:18:50;;;;;;;18.13;13.53;;;11.40;99.90;;;;;;4441704;32;20122;-80
2021/08/29 04:21:20;;;;;;;18.17;13.70;;;11.40;99.90;;;;;;4441974;32;20204;-80
2021/08/29 04:23:46;;;;;;;18.53;13.73;;;11.40;99.90;;;;;;4442150;32;20127;-80
2021/08/29 04:26:13;;;;;;;19.77;14.07;;;11.40;99.90;;;;;;4442700;32;20441;-81
2021/08/29 04:28:41;;;;;;;18.63;13.67;;;11.40;99.90;;;;;;4442425;32;20139;-80
2021/08/29 04:31:12;;;;;;;20.37;14.43;;;11.40;99.90;;;;;;4440742;32;20247;-80
2021/08/29 04:33:39;;;;;;;18.77;13.97;;;11.40;99.90;;;;;;4441076;32;20195;-81
2021/08/29 04:36:10;;;;;;;18.70;13.40;;;11.50;99.90;;;;;;4440566;32;20198;-80
2021/08/29 04:38:37;;;;;;;19.43;14.53;;;11.50;99.90;;;;;;4441325;32;20147;-80
2021/08/29 04:41:04;;;;;;;19.07;14.03;;;11.50;99.90;;;;;;4440712;32;20194;-82
2021/08/29 04:43:31;;;;;;;18.80;14.00;;;11.50;99.90;;;;;;4441257;32;20194;-81
2021/08/29 04:45:58;;;;;;;20.70;13.47;;;11.60;99.90;;;;;;4440408;32;20539;-81
2021/08/29 04:48:25;;;;;;;20.50;13.97;;;11.70;99.90;;;;;;4441683;32;20130;-80
2021/08/29 04:50:51;;;;;;;19.17;14.10;;;11.70;99.90;;;;;;4440561;32;20131;-80
2021/08/29 04:53:18;;;;;;;18.50;14.07;;;11.80;99.90;;;;;;4440652;32;20195;-81
2021/08/29 04:55:45;;;;;;;19.70;14.13;;;11.90;99.90;;;;;;4441107;32;20134;-80
2021/08/29 04:58:12;;;;;;;19.40;13.73;;;12.00;99.90;;;;;;4439101;32;20199;-81
2021/08/29 05:00:38;;;;;;;17.67;13.97;;;12.00;99.90;;;;;;4441918;32;20134;-81
2021/08/29 05:03:07;;;;;;;18.27;13.43;;;12.10;99.90;;;;;;4441005;32;20193;-81
2021/08/29 05:05:34;;;;;;;16.80;13.30;;;12.10;99.90;;;;;;4441638;32;20455;-81
2021/08/29 05:08:00;;;;;;;18.03;13.73;;;12.20;99.90;;;;;;4441404;32;20187;-80
2021/08/29 05:10:27;;;;;;;18.60;13.57;;;12.20;99.90;;;;;;4439930;32;20178;-80
2021/08/29 05:12:54;;;;;;;19.07;13.97;;;12.30;99.90;;;;;;4441600;32;20169;-81
2021/08/29 05:15:21;;;;;;;16.97;13.47;;;12.30;99.90;;;;;;4441417;32;20187;-81
2021/08/29 05:17:48;;;;;;;18.00;13.10;;;12.40;99.90;;;;;;4441848;32;20210;-81
2021/08/29 05:20:15;;;;;;;18.73;13.40;;;12.50;99.90;;;;;;4438723;32;20166;-81
2021/08/29 05:22:41;;;;;;;18.63;13.40;;;12.50;99.90;;;;;;4439893;32;20123;-81
2021/08/29 05:25:08;;;;;;;18.17;13.17;;;12.60;99.90;;;;;;4440168;32;20131;-81
2021/08/29 05:27:35;;;;;;;18.73;13.50;;;12.70;99.90;;;;;;4439901;32;20133;-81
2021/08/29 05:30:02;;;;;;;18.03;13.53;;;12.80;99.90;;;;;;4441469;32;20131;-82
2021/08/29 05:32:29;;;;;;;19.60;13.70;;;12.90;99.90;;;;;;4439586;32;20388;-83
2021/08/29 05:34:56;;;;;;;17.93;13.67;;;12.90;99.90;;;;;;4439410;32;20131;-82
2021/08/29 05:37:23;;;;;;;18.13;13.03;;;13.00;99.90;;;;;;4441233;32;20190;-82
2021/08/29 05:39:50;;;;;;;19.23;12.60;;;13.00;99.90;;;;;;4440301;32;20202;-82
2021/08/29 05:42:17;;;;;;;17.23;12.60;;;13.10;99.90;;;;;;4440495;32;20126;-84
2021/08/29 05:44:44;;;;;;;18.30;13.70;;;13.20;99.90;;;;;;4441204;32;20133;-84
2021/08/29 05:47:10;;;;;;;17.80;12.40;;;13.30;99.90;;;;;;4441338;32;20190;-85
2021/08/29 05:49:37;;;;;;;15.90;12.17;;;13.30;99.90;;;;;;4439881;32;20127;-84
2021/08/29 05:52:05;;;;;;;16.87;12.77;;;13.40;99.90;;;;;;4441046;32;20127;-81
2021/08/29 05:54:32;;;;;;;17.37;13.33;;;13.40;99.90;;;;;;4440113;32;20131;-84
2021/08/29 05:56:59;;;;;;;15.70;12.40;;;13.50;99.90;;;;;;4439349;32;20182;-84
2021/08/29 05:59:25;;;;;;;19.37;12.80;;;13.50;99.90;;;;;;4441043;32;20194;-84
2021/08/29 06:01:52;;;;;;;17.47;12.57;;;13.50;99.90;;;;;;4439534;32;20192;-86
2021/08/29 06:04:19;;;;;;;17.63;13.10;;;13.50;99.90;;;;;;4438985;32;20156;-82
2021/08/29 06:06:46;;;;;;;15.83;12.33;;;13.60;99.90;;;;;;4438452;32;20223;-82
2021/08/29 06:09:13;;;;;;;19.80;13.60;;;13.70;99.90;;;;;;4439857;32;20233;-84
2021/08/29 06:11:39;;;;;;;19.60;13.17;;;13.70;99.90;;;;;;4439777;32;20194;-85
2021/08/29 06:14:06;;;;;;;17.13;12.40;;;13.80;99.90;;;;;;4439169;32;20134;-84
2021/08/29 06:16:34;;;;;;;17.17;12.20;;;13.90;99.90;;;;;;4439132;32;20396;-84
2021/08/29 06:19:01;;;;;;;16.50;12.83;;;14.00;99.90;;;;;;4440300;32;20453;-84
2021/08/29 06:21:27;;;;;;;17.17;12.83;;;14.10;99.90;;;;;;4440467;32;20214;-85
2021/08/29 06:23:54;;;;;;;17.17;13.03;;;14.20;99.90;;;;;;4438278;32;20191;-84
2021/08/29 06:26:21;;;;;;;20.07;13.93;;;14.30;99.90;;;;;;4439126;32;20129;-85
2021/08/29 06:28:48;;;;;;;17.03;13.30;;;14.40;99.90;;;;;;4440424;32;20507;-85
2021/08/29 06:31:14;;;;;;;17.83;13.37;;;14.40;99.90;;;;;;4439121;32;20183;-84
2021/08/29 06:33:41;;;;;;;17.00;13.60;;;14.50;99.90;;;;;;4438447;32;20175;-85
2021/08/29 06:36:08;;;;;;;18.10;12.90;;;14.60;99.90;;;;;;4440385;32;20449;-85
2021/08/29 06:38:35;;;;;;;15.67;12.27;;;14.60;99.90;;;;;;4440137;32;20209;-85
2021/08/29 06:41:02;;;;;;;17.73;13.20;;;14.70;99.90;;;;;;4438556;32;20119;-85
2021/08/29 06:43:29;;;;;;;19.10;13.40;;;14.80;99.90;;;;;;4439692;32;20131;-86
2021/08/29 06:45:55;;;;;;;17.37;13.03;;;14.80;99.90;;;;;;4438224;32;20528;-85
2021/08/29 06:48:22;;;;;;;20.53;14.13;;;14.80;99.90;;;;;;4439854;32;20430;-87
2021/08/29 06:50:49;;;;;;;19.67;13.60;;;14.90;99.90;;;;;;4436922;32;20197;-86
2021/08/29 06:53:16;;;;;;;17.60;13.57;;;15.00;99.90;;;;;;4439941;32;20130;-87
2021/08/29 06:55:43;;;;;;;16.20;12.70;;;15.10;99.90;;;;;;4438291;32;20139;-86
2021/08/29 06:58:09;;;;;;;20.10;13.83;;;15.30;99.90;;;;;;4437680;32;20135;-86
2021/08/29 07:00:36;;;;;;;20.10;14.30;;;15.30;99.90;;;;;;4439772;32;20127;-87
2021/08/29 07:03:03;;;;;;;18.63;13.40;;;15.40;99.90;;;;;;4438587;32;20126;-87
2021/08/29 07:05:30;;;;;;;17.90;13.47;;;15.50;99.90;;;;;;4440305;32;20383;-88
2021/08/29 07:07:57;;;;;;;18.00;13.47;;;15.60;99.90;;;;;;4439648;32;20127;-88
2021/08/29 07:10:24;;;;;;;16.97;12.97;;;15.70;99.90;;;;;;4438984;32;20150;-87
2021/08/29 07:12:51;;;;;;;17.20;12.87;;;15.70;99.90;;;;;;4440584;32;20197;-87
2021/08/29 07:15:18;;;;;;;17.20;12.73;;;15.90;99.90;;;;;;4440461;32;20169;-86
2021/08/29 07:17:45;;;;;;;18.00;12.63;;;16.10;99.90;;;;;;4438373;32;20161;-87
2021/08/29 07:20:12;;;;;;;17.33;12.37;;;16.20;99.90;;;;;;4439880;32;20169;-88
2021/08/29 07:22:39;;;;;;;16.50;12.50;;;16.30;99.90;;;;;;4439424;32;20153;-88
2021/08/29 07:25:06;;;;;;;17.37;12.67;;;16.50;99.90;;;;;;4438770;32;20135;-87
2021/08/29 07:27:33;;;;;;;16.23;12.30;;;16.70;99.90;;;;;;4440457;32;20456;-87
2021/08/29 07:30:00;;;;;;;16.53;12.27;;;16.70;99.90;;;;;;4440276;32;20432;-86
2021/08/29 07:32:27;;;;;;;16.60;12.73;;;16.70;99.90;;;;;;4437330;32;20167;-85
2021/08/29 07:34:53;;;;;;;16.33;11.87;;;16.80;99.90;;;;;;4438355;32;20187;-80
2021/08/29 07:37:22;;;;;;;15.87;12.53;;;17.00;99.90;;;;;;4439444;32;20131;-82
2021/08/29 07:39:49;;;;;;;18.87;11.90;;;17.20;99.90;;;;;;4438098;32;20190;-86
2021/08/29 07:42:16;;;;;;;15.00;11.10;;;17.40;99.90;;;;;;4440068;32;20189;-82
2021/08/29 07:44:43;;;;;;;13.47;11.30;;;17.60;99.90;;;;;;4440278;32;20151;-90
2021/08/29 07:47:10;;;;;;;15.73;11.73;;;17.70;99.90;;;;;;4436950;32;20194;-87
2021/08/29 07:49:37;;;;;;;16.67;11.87;;;17.90;99.90;;;;;;4439331;32;20429;-91
2021/08/29 07:52:04;;;;;;;15.50;11.73;;;17.90;99.90;;;;;;4437668;32;20218;-92
2021/08/29 07:54:31;;;;;;;15.87;11.80;;;17.90;99.90;;;;;;4439901;32;20500;-89
2021/08/29 07:56:58;;;;;;;15.33;11.27;;;18.00;99.90;;;;;;4440468;32;20204;-80
2021/08/29 07:59:25;;;;;;;16.37;11.43;;;18.10;99.90;;;;;;4441915;32;20200;-89
2021/08/29 08:01:54;;;;;;;16.33;11.03;;;18.20;99.90;;;;;;4440135;32;20150;-90
2021/08/29 08:04:21;;;;;;;14.87;11.27;;;18.30;99.90;;;;;;4440858;32;20126;-88
2021/08/29 08:06:48;;;;;;;14.50;11.07;;;18.40;99.90;;;;;;4441234;32;20184;-86
2021/08/29 08:09:15;;;;;;;14.80;11.93;;;18.60;99.90;;;;;;4441111;32;20235;-89
2021/08/29 08:11:42;;;;;;;15.70;11.57;;;18.60;99.90;;;;;;4442202;32;20135;-91
2021/08/29 08:14:09;;;;;;;15.90;11.13;;;18.40;99.90;;;;;;4441458;32;20229;-93
2021/08/29 08:16:36;;;;;;;14.73;11.37;;;18.50;99.90;;;;;;4441901;32;20166;-86
2021/08/29 08:19:04;;;;;;;14.87;11.03;;;18.50;99.90;;;;;;4442708;32;20187;-85
2021/08/29 08:21:31;;;;;;;14.67;11.67;;;18.60;99.90;;;;;;4442617;32;20157;-91
2021/08/29 08:23:57;;;;;;;14.43;10.30;;;18.70;99.90;;;;;;4441812;32;20362;-87
2021/08/29 08:26:24;;;;;;;15.50;10.93;;;18.60;99.90;;;;;;4443051;32;20172;-87
2021/08/29 08:28:51;;;;;;;12.90;10.17;;;18.80;99.90;;;;;;4441173;32;20139;-89
2021/08/29 08:31:20;;;;;;;13.07;9.90;;;18.80;99.90;;;;;;4441755;32;20131;-88
2021/08/29 08:33:47;;;;;;;17.77;9.90;;;18.70;99.90;;;;;;4440643;32;20134;-93
2021/08/29 08:36:14;;;;;;;12.63;9.70;;;18.80;99.90;;;;;;4439787;32;20480;-91
2021/08/29 08:38:41;;;;;;;12.87;9.77;;;18.90;99.90;;;;;;4440068;32;20181;-88
2021/08/29 08:41:08;;;;;;;11.27;9.23;;;18.80;99.90;;;;;;4441135;32;20213;-87
2021/08/29 08:43:35;;;;;;;12.37;9.37;;;18.80;99.90;;;;;;4441809;32;20209;-91
2021/08/29 08:46:03;;;;;;;12.40;9.60;;;18.80;99.90;;;;;;4441205;32;20135;-91
2021/08/29 08:48:30;;;;;;;12.07;9.50;;;18.70;99.90;;;;;;4442189;32;20123;-90
2021/08/29 08:51:01;;;;;;;11.67;9.20;;;18.70;99.90;;;;;;4441713;32;20544;-91
2021/08/29 08:53:31;;;;;;;12.37;9.50;;;18.90;99.90;;;;;;4443705;32;20123;-90
2021/08/29 08:55:59;;;;;;;17.73;9.87;;;18.90;99.90;;;;;;4442309;32;20244;-84
2021/08/29 08:58:28;;;;;;;14.10;10.07;;;19.00;99.90;;;;;;4442302;32;20131;-84
2021/08/29 09:00:56;;;;;;;12.50;10.47;;;19.20;99.90;;;;;;4441873;32;20143;-87
2021/08/29 09:03:24;;;;;;;16.33;11.10;;;19.30;99.90;;;;;;4444087;32;20126;-86
2021/08/29 09:05:51;;;;;;;15.03;10.77;;;19.30;99.90;;;;;;4443416;32;20154;-90
2021/08/29 09:08:20;;;;;;;14.83;10.90;;;19.30;99.90;;;;;;4442785;32;20158;-88
2021/08/29 09:10:47;;;;;;;14.73;11.00;;;19.30;99.90;;;;;;4443430;32;20411;-84
2021/08/29 09:13:14;;;;;;;13.83;10.53;;;19.30;99.90;;;;;;4441148;32;20468;-88
2021/08/29 09:15:41;;;;;;;13.27;11.03;;;19.40;99.90;;;;;;4441336;32;20155;-86
2021/08/29 09:18:10;;;;;;;12.53;10.03;;;19.30;99.90;;;;;;4440430;32;20127;-87
2021/08/29 09:20:39;;;;;;;13.73;10.40;;;19.40;99.90;;;;;;4441472;32;20219;-88
2021/08/29 09:23:08;;;;;;;15.73;11.23;;;19.40;99.90;;;;;;4441580;32;20188;-88
2021/08/29 09:25:43;;;;;;;15.30;10.17;;;19.40;99.90;;;;;;4439868;32;20170;-89
2021/08/29 09:28:15;;;;;;;13.17;9.40;;;19.30;99.90;;;;;;4440699;32;20154;-87
2021/08/29 09:30:45;;;;;;;14.13;9.60;;;19.40;99.90;;;;;;4441451;32;20169;-88
2021/08/29 09:33:13;;;;;;;13.87;9.13;;;19.20;99.90;;;;;;4440939;32;20126;-88
2021/08/29 09:35:40;;;;;;;11.63;9.30;;;19.30;99.90;;;;;;4441763;32;20194;-90
2021/08/29 09:38:16;;;;;;;11.47;8.57;;;19.40;99.90;;;;;;4439070;32;20161;-92
2021/08/29 09:40:43;;;;;;;11.43;8.70;;;19.50;99.90;;;;;;4439756;32;20186;-88
2021/08/29 09:43:10;;;;;;;13.53;8.90;;;19.60;99.90;;;;;;4442273;32;20185;-88
2021/08/29 09:45:41;;;;;;;10.63;7.90;;;19.60;99.90;;;;;;4451092;32;20127;-87
2021/08/29 09:48:15;;;;;;;10.97;8.47;;;19.60;99.90;;;;;;4452116;32;20167;-86
2021/08/29 09:50:45;;;;;;;12.07;8.37;;;19.50;99.90;;;;;;4448391;32;20502;-84
2021/08/29 09:53:15;;;;;;;11.00;8.27;;;19.50;99.90;;;;;;4444360;32;20114;-83
2021/08/29 09:55:44;;;;;;;9.90;8.50;;;19.50;99.90;;;;;;4445745;32;20146;-85
2021/08/29 09:58:31;;;;;;;12.07;8.77;;;19.50;99.90;;;;;;4450988;32;20213;-84
2021/08/29 10:01:12;;;;;;;11.07;8.37;;;19.30;99.90;;;;;;4452013;32;20182;-86
2021/08/29 10:03:49;;;;;;;10.43;7.57;;;19.20;99.90;;;;;;4451992;32;20123;-86
2021/08/29 10:06:28;;;;;;;10.10;8.10;;;19.10;99.90;;;;;;4451654;32;20188;-83
2021/08/29 10:08:58;;;;;;;10.47;7.57;;;19.20;99.90;;;;;;4451166;32;20154;-83
2021/08/29 10:11:30;;;;;;;9.93;7.20;;;19.30;99.90;;;;;;4452397;32;20166;-83
2021/08/29 10:13:58;;;;;;;12.40;7.50;;;19.20;99.90;;;;;;4452344;32;20138;-86
2021/08/29 10:16:29;;;;;;;7.77;6.50;;;19.10;99.90;;;;;;4450725;32;20166;-86
2021/08/29 10:18:57;;;;;;;9.63;6.77;;;18.90;99.90;;;;;;4451728;32;20160;-86
2021/08/29 10:21:31;;;;;;;9.20;7.43;;;18.80;99.90;;;;;;4452142;32;20208;-89
2021/08/29 10:23:59;;;;;;;7.93;6.73;;;18.70;99.90;;;;;;4450009;32;20137;-87
2021/08/29 10:26:26;;;;;;;9.93;7.00;;;18.70;99.90;;;;;;4447625;32;20154;-90
2021/08/29 10:29:04;;;;;;;9.97;7.40;;;18.50;99.90;;;;;;4450779;32;20169;-88
2021/08/29 10:31:43;;;;;;;8.13;6.93;;;18.40;99.90;;;;;;4451861;32;20405;-86
2021/08/29 10:34:13;;;;;;;8.90;6.93;;;18.50;99.90;;;;;;4453206;32;20115;-86
2021/08/29 10:36:40;;;;;;;9.30;7.07;;;18.60;99.90;;;;;;4450636;32;20165;-86
2021/08/29 10:39:07;;;;;;;8.13;6.60;;;18.60;99.90;;;;;;4449621;32;20151;-83
2021/08/29 10:41:34;;;;;;;8.63;6.87;;;18.70;99.90;;;;;;4450199;32;20171;-83
2021/08/29 10:44:01;;;;;;;10.13;7.13;;;19.00;99.90;;;;;;4449961;32;20214;-83
2021/08/29 10:46:28;;;;;;;9.30;7.07;;;18.90;99.90;;;;;;4450666;32;20135;-86
2021/08/29 10:48:58;;;;;;;8.53;6.80;;;19.00;99.90;;;;;;4451842;32;20138;-83
2021/08/29 10:51:27;;;;;;;10.27;7.50;;;19.00;99.90;;;;;;4446632;32;20127;-80
2021/08/29 10:53:56;;;;;;;10.13;7.10;;;19.20;99.90;;;;;;4439005;32;20134;-79
2021/08/29 10:56:22;;;;;;;9.47;7.03;;;19.30;99.90;;;;;;4439472;32;20194;-80
2021/08/29 10:59:07;;;;;;;8.80;6.73;;;19.40;99.90;;;;;;4441368;32;20139;-80
2021/08/29 11:01:45;;;;;;;7.87;6.30;;;19.50;99.90;;;;;;4442721;32;20205;-80
2021/08/29 11:04:35;;;;;;;8.93;6.70;;;19.50;99.90;;;;;;4439542;32;20126;-79
2021/08/29 11:07:08;;;;;;;7.60;6.17;;;19.60;99.90;;;;;;4431821;32;20193;-79
2021/08/29 11:09:35;;;;;;;7.87;6.40;;;19.70;99.90;;;;;;4439288;32;20474;-80
2021/08/29 11:12:06;;;;;;;7.93;6.80;;;19.70;99.90;;;;;;4439336;32;20153;-83
2021/08/29 11:14:41;;;;;;;10.23;6.50;;;19.60;99.90;;;;;;4439903;32;20127;-79
2021/08/29 11:17:10;;;;;;;8.80;6.20;;;19.80;99.90;;;;;;4439074;32;20471;-80
2021/08/29 11:19:38;;;;;;;7.60;6.20;;;20.00;99.90;;;;;;4440119;32;20183;-79
2021/08/29 11:22:07;;;;;;;7.63;6.10;;;20.20;99.90;;;;;;4439809;32;20131;-79
2021/08/29 11:25:13;;;;;;;8.53;6.30;;;20.20;99.90;;;;;;4439310;32;20127;-77
2021/08/29 11:27:46;;;;;;;8.10;6.10;;;20.50;99.90;;;;;;4440063;32;20145;-78
2021/08/29 11:30:38;;;;;;;8.13;6.73;;;20.60;99.90;;;;;;4441100;32;20398;-79
2021/08/29 11:33:08;;;;;;;8.33;6.50;;;20.60;99.90;;;;;;4443088;32;20222;-77
2021/08/29 11:35:43;;;;;;;8.33;6.30;;;20.50;99.90;;;;;;4442677;32;20157;-80
2021/08/29 11:38:14;;;;;;;7.87;6.27;;;20.50;99.90;;;;;;4442145;32;20547;-78
2021/08/29 11:41:01;;;;;;;7.93;6.50;;;20.40;99.90;;;;;;4442420;32;20261;-80
2021/08/29 11:43:27;;;;;;;8.00;5.93;;;20.30;99.90;;;;;;4442907;32;20171;-76
2021/08/29 11:46:02;;;;;;;8.83;6.10;;;20.30;99.90;;;;;;4441839;32;20130;-77
2021/08/29 11:48:31;;;;;;;7.13;5.57;;;20.40;99.90;;;;;;4441144;32;20246;-77
2021/08/29 11:50:59;;;;;;;6.87;6.00;;;20.50;99.90;;;;;;4442397;32;20414;-76
2021/08/29 11:53:26;;;;;;;7.30;6.20;;;20.60;99.90;;;;;;4442120;32;20202;-77
2021/08/29 11:56:08;;;;;;;8.83;6.40;;;20.60;99.90;;;;;;4439825;32;20189;-77
2021/08/29 11:58:34;;;;;;;6.17;5.37;;;20.00;99.90;;;;;;4442884;32;20139;-79
2021/08/29 12:01:04;;;;;;;7.80;6.13;;;19.80;99.90;;;;;;4442366;32;20289;-80
2021/08/29 12:03:35;;;;;;;9.90;6.63;;;19.80;99.90;;;;;;4440730;32;20474;-78
2021/08/29 12:06:26;;;;;;;7.27;6.03;;;19.80;99.90;;;;;;4442428;32;20146;-77
2021/08/29 12:09:18;;;;;;;10.43;6.33;;;19.70;99.90;;;;;;4442091;32;20233;-80
2021/08/29 12:11:45;;;;;;;7.93;5.90;;;20.00;99.90;;;;;;4442348;32;20818;-80
2021/08/29 12:14:17;;;;;;;8.17;5.80;;;20.20;99.90;;;;;;4443153;32;20389;-82
2021/08/29 12:16:56;;;;;;;7.73;6.03;;;20.40;99.90;;;;;;4446811;32;20146;-78
2021/08/29 12:19:27;;;;;;;7.07;5.80;;;20.50;99.90;;;;;;4441499;32;20126;-78
2021/08/29 12:21:54;;;;;;;7.87;5.27;;;20.60;99.90;;;;;;4441368;32;20146;-76
2021/08/29 12:24:33;;;;;;;6.90;5.60;;;20.70;99.90;;;;;;4443293;32;20162;-76
2021/08/29 12:27:08;;;;;;;6.67;5.50;;;20.80;99.90;;;;;;4443251;32;20145;-77
2021/08/29 12:29:45;;;;;;;6.87;5.30;;;20.90;99.90;;;;;;4442400;32;20126;-77
2021/08/29 12:32:24;;;;;;;5.80;5.10;;;21.00;99.90;;;;;;4442527;32;20135;-76
2021/08/29 12:34:58;;;;;;;5.37;4.77;;;21.00;99.90;;;;;;4442081;32;20162;-76
2021/08/29 12:37:27;;;;;;;6.50;5.30;;;21.00;99.90;;;;;;4440386;32;20202;-76
2021/08/29 12:40:06;;;;;;;6.17;4.77;;;21.00;99.90;;;;;;4442104;32;20468;-77
2021/08/29 12:42:35;;;;;;;7.00;4.73;;;21.00;99.90;;;;;;4442208;32;20365;-77